Terminal Aerodrome Forecast
Issued by NWS

Home | Current Version | Previous Version | Text Only | Print | Product List | Glossary On
Versions: 1 2 3 4 5 6 7 8 9 10 11 12 13 14 15 16 17 18 19 20 21 22 23 24 25 26 27 28
000
FTUS43 KDVN 240400 AAB
TAFBRL
TAF AMD
KBRL 240402Z 2404/2424 32010KT 5SM BR OVC002
      TEMPO 2404/2406 3SM -RA BR OVC004
     FM240600 31020G28KT 5SM -RA BR OVC005
     FM241400 32018G27KT 1SM -SN BR OVC007
     FM241800 28017G26KT P6SM OVC025=

USA.gov is the U.S. government's official web portal to all federal, state and local government web resources and services.